createdAt,value
2022-12-19T00:02:56.311Z,24.02
2022-12-19T00:06:05.133Z,23.98
2022-12-19T00:09:07.801Z,24.75
2022-12-19T00:12:15.901Z,22.02
2022-12-19T00:15:21.045Z,24.70
2022-12-19T00:18:23.130Z,22.88
2022-12-19T00:21:28.243Z,24.30
2022-12-19T00:24:30.365Z,23.95
2022-12-19T00:27:37.709Z,25.63
2022-12-19T00:30:40.040Z,25.05
2022-12-19T00:33:43.848Z,23.65
2022-12-19T00:36:47.368Z,26.40
2022-12-19T00:39:49.333Z,24.30
2022-12-19T00:42:53.708Z,23.58
2022-12-19T00:45:55.990Z,23.90
2022-12-19T00:48:59.924Z,25.77
2022-12-19T00:52:02.682Z,25.80
2022-12-19T00:58:17.347Z,22.92
2022-12-19T01:01:24.172Z,22.92
2022-12-19T01:04:28.657Z,23.05
2022-12-19T01:07:31.389Z,24.48
2022-12-19T01:10:35.948Z,24.27
2022-12-19T01:13:39.990Z,23.95
2022-12-19T01:16:45.727Z,24.77
2022-12-19T01:19:47.893Z,25.25
2022-12-19T01:22:49.926Z,24.48
2022-12-19T01:25:54.803Z,23.35
2022-12-19T01:28:57.854Z,25.55
2022-12-19T01:31:59.962Z,23.42
2022-12-19T01:35:02.866Z,24.73
2022-12-19T01:38:08.157Z,23.65
2022-12-19T01:41:11.353Z,24.70
2022-12-19T01:44:13.417Z,23.95
2022-12-19T01:47:15.683Z,24.02
2022-12-19T01:50:37.810Z,25.13
2022-12-19T01:53:49.772Z,26.48
2022-12-19T01:56:55.467Z,26.45
2022-12-19T01:59:59.268Z,25.30
2022-12-19T02:03:08.707Z,23.90
2022-12-19T02:06:15.427Z,22.83
2022-12-19T02:09:17.889Z,21.10
2022-12-19T02:12:20.331Z,24.25
2022-12-19T02:15:24.789Z,22.85
2022-12-19T02:18:44.410Z,22.92
2022-12-19T02:22:18.744Z,22.30
2022-12-19T02:25:36.748Z,22.92
2022-12-19T02:29:17.502Z,24.23
2022-12-19T02:32:38.232Z,22.42
2022-12-19T02:36:15.515Z,26.40
2022-12-19T02:39:20.592Z,26.02
2022-12-19T02:42:30.560Z,26.10
2022-12-19T02:45:37.862Z,24.30
2022-12-19T02:48:40.705Z,24.05
2022-12-19T02:51:43.360Z,23.80
2022-12-19T02:54:51.864Z,24.13
2022-12-19T02:58:04.662Z,24.67
2022-12-19T03:01:35.604Z,23.45
2022-12-19T03:05:12.057Z,24.00
2022-12-19T03:08:31.584Z,21.58
2022-12-19T03:11:39.106Z,22.90
2022-12-19T03:14:42.516Z,22.42
2022-12-19T03:23:54.385Z,21.27
2022-12-19T03:27:02.143Z,22.15
2022-12-19T03:30:08.846Z,24.17
2022-12-19T03:33:13.854Z,23.08
2022-12-19T03:36:21.225Z,22.13
2022-12-19T03:39:25.343Z,21.30
2022-12-19T03:42:30.448Z,22.88
2022-12-19T03:46:06.093Z,22.27
2022-12-19T03:49:08.536Z,23.48
2022-12-19T03:52:30.238Z,25.00
2022-12-19T03:55:39.026Z,25.15
2022-12-19T03:58:45.691Z,25.23
2022-12-19T04:01:49.011Z,24.90
2022-12-19T04:04:56.041Z,24.27
2022-12-19T04:08:04.469Z,24.73
2022-12-19T04:11:13.496Z,25.98
2022-12-19T04:14:23.052Z,30.05
2022-12-19T04:17:49.669Z,25.95
2022-12-19T04:20:58.409Z,24.90
2022-12-19T04:24:11.784Z,22.25
2022-12-19T04:27:14.671Z,22.60
2022-12-19T04:30:18.877Z,22.75
2022-12-19T04:33:21.029Z,21.45
2022-12-19T04:36:24.679Z,22.80
2022-12-19T04:39:27.556Z,21.73
2022-12-19T04:42:29.673Z,21.17
2022-12-19T04:45:31.673Z,22.02
2022-12-19T04:48:36.167Z,21.65
2022-12-19T04:51:38.283Z,20.13
2022-12-19T04:54:40.402Z,20.15
2022-12-19T04:57:42.683Z,20.48
2022-12-19T05:00:44.778Z,20.02
2022-12-19T05:03:51.319Z,19.13
2022-12-19T05:06:56.352Z,19.30
2022-12-19T05:09:59.317Z,17.85
2022-12-19T05:13:01.458Z,18.05
2022-12-19T05:16:06.235Z,18.02
2022-12-19T05:19:08.406Z,19.33
2022-12-19T05:22:10.506Z,21.15
2022-12-19T05:25:12.560Z,19.88
2022-12-19T05:28:15.383Z,19.10
2022-12-19T05:31:20.201Z,18.42
2022-12-19T05:34:23.780Z,19.15
2022-12-19T05:37:26.115Z,19.75
2022-12-19T05:40:29.100Z,19.98
2022-12-19T05:43:31.269Z,17.55
2022-12-19T05:46:33.575Z,18.90
2022-12-19T05:49:35.671Z,19.35
2022-12-19T05:52:37.648Z,19.27
2022-12-19T05:55:42.068Z,19.75
2022-12-19T05:58:45.312Z,18.60
2022-12-19T06:01:50.683Z,19.50
2022-12-19T06:04:52.980Z,20.50
2022-12-19T06:07:55.115Z,18.35
2022-12-19T06:11:02.751Z,18.85
2022-12-19T06:14:04.827Z,20.08
2022-12-19T06:17:06.808Z,18.60
2022-12-19T06:20:09.333Z,19.60
2022-12-19T06:23:11.389Z,18.38
2022-12-19T06:26:19.997Z,21.23
2022-12-19T06:29:22.369Z,19.95
2022-12-19T06:32:24.478Z,20.92
2022-12-19T06:35:26.571Z,19.50
2022-12-19T06:38:29.934Z,19.80
2022-12-19T06:41:31.963Z,19.83
2022-12-19T06:44:34.258Z,20.60
2022-12-19T06:47:36.308Z,19.92
2022-12-19T06:50:38.325Z,18.98
2022-12-19T06:53:40.378Z,19.40
2022-12-19T06:56:43.553Z,18.10
2022-12-19T06:59:45.806Z,20.00
2022-12-19T07:02:51.060Z,18.08
2022-12-19T07:05:53.706Z,18.40
2022-12-19T07:08:55.772Z,18.63
2022-12-19T07:11:58.110Z,18.65
2022-12-19T07:15:00.236Z,18.92
2022-12-19T07:18:04.046Z,19.02
2022-12-19T07:21:08.162Z,18.92
2022-12-19T07:24:12.361Z,19.73
2022-12-19T07:27:15.240Z,18.10
2022-12-19T07:30:17.412Z,18.30
2022-12-19T07:33:21.611Z,18.27
2022-12-19T07:36:24.167Z,20.65
2022-12-19T07:39:26.220Z,20.10
2022-12-19T07:42:32.480Z,18.67
2022-12-19T07:45:37.938Z,19.73
2022-12-19T07:48:40.055Z,20.02
2022-12-19T07:51:42.081Z,18.63
2022-12-19T07:54:44.079Z,17.83
2022-12-19T07:57:46.136Z,19.45
2022-12-19T08:00:58.453Z,20.48
2022-12-19T08:04:00.523Z,20.23
2022-12-19T08:07:02.489Z,19.70
2022-12-19T08:10:05.321Z,19.73
2022-12-19T08:13:09.745Z,19.55
2022-12-19T08:16:12.135Z,18.98
2022-12-19T08:19:14.199Z,19.27
2022-12-19T08:22:16.205Z,18.48
2022-12-19T08:25:19.000Z,18.80
2022-12-19T08:28:21.092Z,18.80
2022-12-19T08:31:24.737Z,17.38
2022-12-19T08:34:27.492Z,18.75
2022-12-19T08:37:29.531Z,18.83
2022-12-19T08:40:31.529Z,18.83
2022-12-19T08:43:36.572Z,20.05
2022-12-19T08:46:38.922Z,18.50
2022-12-19T08:49:40.950Z,18.27
2022-12-19T08:52:42.938Z,19.38
2022-12-19T08:55:44.930Z,19.40
2022-12-19T08:58:51.824Z,20.77
2022-12-19T09:01:53.946Z,19.27
2022-12-19T09:05:57.963Z,18.73
2022-12-19T09:08:18.289Z,18.63
2022-12-19T09:11:20.921Z,20.48
2022-12-19T09:14:22.936Z,20.65
2022-12-19T09:17:25.001Z,19.10
2022-12-19T09:20:27.452Z,19.25
2022-12-19T09:23:30.318Z,19.52
2022-12-19T09:26:33.653Z,19.27
2022-12-19T09:29:36.092Z,19.25
2022-12-19T09:32:40.589Z,17.55
2022-12-19T09:35:53.129Z,18.15
2022-12-19T09:38:59.309Z,17.35
2022-12-19T09:42:15.308Z,17.77
2022-12-19T09:45:31.730Z,18.13
2022-12-19T09:48:34.748Z,18.90
2022-12-19T09:51:44.262Z,17.92
2022-12-19T09:55:06.807Z,17.23
2022-12-19T09:58:31.980Z,17.35
2022-12-19T10:02:04.061Z,19.05
2022-12-19T10:06:37.204Z,16.48
2022-12-19T10:09:38.647Z,17.30
2022-12-19T10:12:54.850Z,18.98
2022-12-19T10:16:28.020Z,17.75
2022-12-19T10:20:08.676Z,17.33
2022-12-19T10:23:31.824Z,17.35
2022-12-19T10:26:49.408Z,18.05
2022-12-19T10:30:00.374Z,18.95
2022-12-19T10:33:19.787Z,17.48
2022-12-19T10:36:36.487Z,18.85
2022-12-19T10:39:48.711Z,17.23
2022-12-19T10:43:33.764Z,18.00
2022-12-19T10:46:44.997Z,18.50
2022-12-19T10:52:56.504Z,17.33
2022-12-19T10:56:12.672Z,16.77
2022-12-19T10:59:20.289Z,17.15
2022-12-19T11:02:51.001Z,18.77
2022-12-19T11:05:57.861Z,17.67
2022-12-19T11:09:20.410Z,16.17
2022-12-19T11:16:20.082Z,17.25
2022-12-19T11:20:52.920Z,17.52
2022-12-19T11:27:16.223Z,17.50
2022-12-19T11:30:38.642Z,17.80
2022-12-19T11:30:42.815Z,20.85
2022-12-19T11:33:53.368Z,20.05
2022-12-19T11:37:04.212Z,19.65
2022-12-19T11:40:36.120Z,18.58
2022-12-19T11:43:55.571Z,19.05
2022-12-19T11:47:11.586Z,19.77
2022-12-19T12:03:30.850Z,20.70
2022-12-19T12:06:39.715Z,22.58
2022-12-19T12:12:38.493Z,19.95
2022-12-19T12:23:31.077Z,21.73
2022-12-19T12:30:59.172Z,20.95
2022-12-19T12:31:21.757Z,21.30
2022-12-19T12:31:46.586Z,20.38
2022-12-19T12:32:02.749Z,19.92
2022-12-19T12:35:30.667Z,20.45
2022-12-19T12:39:31.681Z,19.48
2022-12-19T12:42:59.824Z,20.05
2022-12-19T12:46:05.463Z,19.92
2022-12-19T12:49:29.550Z,21.23
2022-12-19T12:52:38.096Z,20.25
2022-12-19T12:55:40.808Z,20.77
2022-12-19T12:58:54.144Z,20.27
2022-12-19T13:02:22.649Z,20.17
2022-12-19T13:05:46.526Z,20.38
2022-12-19T13:08:50.183Z,19.48
2022-12-19T13:12:00.325Z,21.15
2022-12-19T13:15:32.227Z,21.15
2022-12-19T13:18:35.855Z,26.63
2022-12-19T13:22:09.075Z,25.58
2022-12-19T13:25:36.052Z,29.45
2022-12-19T13:32:13.421Z,21.83
2022-12-19T13:36:59.544Z,20.23
2022-12-19T13:39:58.100Z,21.17
2022-12-19T13:42:15.183Z,20.73
2022-12-19T13:45:27.072Z,20.67
2022-12-19T13:48:36.580Z,19.65
2022-12-19T13:51:58.276Z,19.85
2022-12-19T13:55:00.518Z,21.05
2022-12-19T13:58:04.727Z,21.73
2022-12-19T14:01:20.749Z,20.27
2022-12-19T14:04:31.534Z,21.77
2022-12-19T14:07:39.426Z,20.50
2022-12-19T14:11:47.298Z,20.80
2022-12-19T14:14:20.602Z,21.92
2022-12-19T14:17:29.399Z,21.38
2022-12-19T14:22:01.868Z,22.05
2022-12-19T14:24:17.413Z,22.30
2022-12-19T14:28:24.866Z,21.17
2022-12-19T14:30:49.163Z,22.02
2022-12-19T14:34:18.570Z,24.70
2022-12-19T14:38:12.687Z,22.05
2022-12-19T14:41:07.960Z,24.50
2022-12-19T14:52:08.826Z,24.10
2022-12-19T14:54:11.537Z,23.40
2022-12-19T14:54:28.662Z,24.10
2022-12-19T14:58:54.290Z,23.17
2022-12-19T15:01:28.665Z,24.15
2022-12-19T15:04:53.134Z,24.98
2022-12-19T15:08:01.198Z,24.95
2022-12-19T15:11:18.610Z,23.55
2022-12-19T15:14:53.598Z,23.98
2022-12-19T15:18:00.565Z,23.02
2022-12-19T15:21:06.720Z,24.70
2022-12-19T15:24:09.351Z,27.05
2022-12-19T15:27:14.173Z,27.55
2022-12-19T15:30:21.615Z,29.75
2022-12-19T15:33:23.791Z,29.00
2022-12-19T15:36:26.083Z,28.23
2022-12-19T15:39:28.397Z,24.80
2022-12-19T15:42:33.405Z,26.02
2022-12-19T15:45:35.677Z,24.88
2022-12-19T15:48:42.981Z,24.58
2022-12-19T15:51:46.396Z,24.52
2022-12-19T15:54:50.204Z,25.98
2022-12-19T15:57:57.359Z,23.42
2022-12-19T16:01:03.590Z,25.52
2022-12-19T16:04:12.664Z,24.63
2022-12-19T16:07:20.528Z,24.60
2022-12-19T16:10:25.313Z,23.60
2022-12-19T16:13:30.612Z,23.75
2022-12-19T16:16:33.264Z,22.35
2022-12-19T16:19:36.436Z,22.25
2022-12-19T16:22:38.489Z,26.08
2022-12-19T16:25:48.520Z,23.15
2022-12-19T16:28:52.966Z,23.77
2022-12-19T16:31:56.279Z,23.73
2022-12-19T16:34:58.323Z,26.65
2022-12-19T16:38:00.376Z,28.02
2022-12-19T16:41:03.179Z,28.50
2022-12-19T16:44:17.341Z,34.08
2022-12-19T16:47:22.009Z,31.92
2022-12-19T16:50:27.471Z,31.35
2022-12-19T16:53:29.547Z,30.80
2022-12-19T16:56:36.461Z,28.83
2022-12-19T16:59:39.845Z,29.52
2022-12-19T17:02:48.033Z,30.35
2022-12-19T17:05:50.363Z,36.10
2022-12-19T17:08:52.634Z,36.97
2022-12-19T17:11:58.148Z,32.88
2022-12-19T17:15:00.593Z,31.90
2022-12-19T17:18:15.080Z,27.13
2022-12-19T17:21:19.742Z,23.55
2022-12-19T17:24:21.804Z,22.40
2022-12-19T17:27:23.862Z,22.60
2022-12-19T17:30:27.761Z,22.02
2022-12-19T17:33:39.066Z,21.17
2022-12-19T17:36:41.132Z,20.83
2022-12-19T17:42:51.047Z,20.75
2022-12-19T17:45:53.248Z,19.08
2022-12-19T17:48:55.346Z,20.23
2022-12-19T17:51:58.972Z,21.08
2022-12-19T17:55:02.416Z,22.95
2022-12-19T17:58:04.487Z,21.60
2022-12-19T18:01:20.317Z,22.08
2022-12-19T18:04:22.868Z,21.63
2022-12-19T18:07:24.965Z,27.92
2022-12-19T18:10:31.325Z,26.33
2022-12-19T18:13:33.590Z,24.70
2022-12-19T18:16:35.783Z,21.65
2022-12-19T18:19:38.203Z,22.40
2022-12-19T18:22:40.273Z,22.25
2022-12-19T18:25:42.258Z,21.80
2022-12-19T18:28:44.739Z,21.50
2022-12-19T18:31:51.216Z,20.73
2022-12-19T18:34:53.660Z,23.48
2022-12-19T18:37:59.566Z,24.08
2022-12-19T18:41:02.123Z,22.08
2022-12-19T18:44:04.273Z,21.13
2022-12-19T18:47:13.044Z,18.77
2022-12-19T18:50:24.376Z,21.13
2022-12-19T18:53:34.443Z,21.40
2022-12-19T18:56:37.731Z,23.88
2022-12-19T18:59:42.459Z,26.08
2022-12-19T19:02:49.389Z,23.33
2022-12-19T19:05:51.662Z,22.25
2022-12-19T19:08:54.248Z,22.58
2022-12-19T19:12:20.222Z,24.42
2022-12-19T19:15:26.521Z,25.00
2022-12-19T19:18:37.144Z,24.17
2022-12-19T19:21:40.262Z,29.02
2022-12-19T19:24:43.437Z,28.00
2022-12-19T19:27:45.521Z,26.45
2022-12-19T19:30:51.567Z,26.23
2022-12-19T19:34:03.311Z,27.58
2022-12-19T19:37:08.189Z,25.85
2022-12-19T19:40:12.095Z,26.83
2022-12-19T19:43:15.322Z,27.25
2022-12-19T19:49:21.326Z,21.38
2022-12-19T19:52:23.462Z,23.15
2022-12-19T19:55:26.282Z,28.05
2022-12-19T19:58:29.237Z,28.33
2022-12-19T20:01:31.518Z,28.15
2022-12-19T20:04:34.934Z,27.63
2022-12-19T20:07:37.511Z,27.17
2022-12-19T20:10:39.917Z,28.13
2022-12-19T20:13:42.047Z,23.67
2022-12-19T20:16:58.385Z,22.25
2022-12-19T20:20:01.843Z,19.60
2022-12-19T20:23:06.108Z,21.25
2022-12-19T20:26:10.639Z,20.23
2022-12-19T20:29:15.061Z,18.60
2022-12-19T20:32:19.383Z,19.40
2022-12-19T20:35:25.496Z,20.05
2022-12-19T20:38:28.176Z,18.55
2022-12-19T20:41:30.455Z,18.35
2022-12-19T20:44:33.187Z,18.05
2022-12-19T20:47:35.586Z,20.48
2022-12-19T20:50:43.094Z,21.35
2022-12-19T20:53:47.156Z,21.38
2022-12-19T20:56:49.593Z,20.58
2022-12-19T20:59:52.605Z,20.33
2022-12-19T21:06:21.226Z,22.15
2022-12-19T21:09:25.384Z,21.10
2022-12-19T21:12:28.232Z,21.55
2022-12-19T21:15:31.081Z,21.15
2022-12-19T21:18:34.050Z,19.48
2022-12-19T21:21:36.356Z,21.77
2022-12-19T21:24:38.582Z,19.88
2022-12-19T21:27:40.762Z,19.75
2022-12-19T21:30:43.406Z,19.15
2022-12-19T21:33:47.136Z,17.55
2022-12-19T21:36:50.024Z,19.30
2022-12-19T21:39:52.496Z,19.23
2022-12-19T21:42:55.273Z,18.88
2022-12-19T21:46:12.040Z,19.98
2022-12-19T21:49:14.798Z,20.17
2022-12-19T21:52:17.202Z,21.80
2022-12-19T21:55:19.806Z,21.50
2022-12-19T21:58:22.462Z,20.33
2022-12-19T22:01:26.229Z,22.58
2022-12-19T22:04:31.137Z,20.42
2022-12-19T22:07:33.587Z,19.85
2022-12-19T22:10:39.619Z,20.65
2022-12-19T22:13:42.122Z,19.48
2022-12-19T22:16:45.627Z,21.52
2022-12-19T22:19:48.482Z,21.73
2022-12-19T22:22:50.504Z,21.55
2022-12-19T22:26:07.436Z,20.30
2022-12-19T22:29:13.373Z,20.27
2022-12-19T22:32:15.922Z,21.52
2022-12-19T22:35:18.355Z,21.80
2022-12-19T22:38:20.687Z,20.85
2022-12-19T22:41:27.550Z,20.58
2022-12-19T22:44:29.729Z,18.98
2022-12-19T22:47:32.088Z,20.92
2022-12-19T22:50:36.309Z,19.73
2022-12-19T22:53:41.409Z,19.88
2022-12-19T22:56:46.121Z,20.30
2022-12-19T22:59:48.346Z,21.27
2022-12-19T23:02:52.313Z,20.60
2022-12-19T23:05:55.558Z,20.60
2022-12-19T23:12:00.022Z,19.60
2022-12-19T23:15:02.060Z,18.30
2022-12-19T23:18:04.571Z,18.92
2022-12-19T23:21:15.772Z,19.13
2022-12-19T23:24:18.247Z,16.83
2022-12-19T23:27:20.608Z,19.63
2022-12-19T23:30:22.830Z,19.90
2022-12-19T23:33:25.811Z,19.83
2022-12-19T23:37:08.361Z,19.38
2022-12-19T23:39:50.815Z,19.15
2022-12-19T23:42:54.569Z,18.20
2022-12-19T23:45:57.180Z,19.17
2022-12-19T23:48:59.513Z,19.48
2022-12-19T23:52:01.892Z,19.23
2022-12-19T23:55:04.532Z,19.17
2022-12-19T23:58:14.509Z,17.55
